Startpagina
METAR-TAF:

METAR-TAF

Vliegvelden :

Nörvenich, Duitsland

breedte: 50-50N, lengte: 006-40E, hoogte: 118 m

Actueel weer

Dit bericht is 59 minuten geleden gemaakt, om 11:20 UTC
Wind 4 kt uit het oosten
Temperatuur 5°C
Vochtigheid 75%
Druk 1017 hPa
Zicht 10 km of meer
Weinig wolken op 1500 ft

METAR: ETNN 201120Z 10004KT 9999 FEW015 05/01 Q1017 BLU+BLU+

Tijdstip: 13:19 (12:19 UTC)

Verwachting

Dit bericht is 1 uur en het 19 minuten geleden gemaakt, om 11:00 UTC
Verwachting geldig van 20 om 12 UTC tot 20 om 21 UTC
Wind 5 kt uit het zuidoosten
Zicht 10 km of meer
Verspreide wolken op 3000 ft

TAF: ETNN 201100Z 2012/2021 13005KT 9999 NSW SCT030 BY ETGL

Waarnemingen en weersverwachtingen van meer dan 4000 vliegvelden (METAR en TAF).

De beschikbare stations zijn de gele en rode punten op de kaart.

Ga met uw muis naar het station om de naam te zien.

Klik dan om waarnemingen en weersverwachtingen te zien.

kaart wijzigen: klik op de groene knoppen met een zwart kruis om in te zoomen, op de groene knop met een streepje om uit te zoomen of op de groene pijlen voor aangrenzende kaarten.


METAR-TAF: